Teslin, Canada
Current Conditions -  °F | °C
As of 1:00 PM on Tuesday 27 Jan 2015 (Local Time) from CYXY Reporting Station
Light Snow Light Snow  
Wind Chill: -26°   Ceiling: 2000
Heat Index: -9°   Visibility: 6mi
Dew Point: -17°   Wind: 8mph
Humidity: 71%   Direction: 340°NNW
Pressure: 29.99"   Gusts: NA
Location:  60.17°N, 132.72°W
Report Text: CYXY 272100Z 34007KT 6SM -SN OVC020 M23/M27 A2999 RMK SC8 SLP237
Loading
Personal Weather Stations






























Interactive Weather Map New forecast layout! Learn more

10-Day Weather Forecast

Advertisements
Track Severe Weather on mobile